createdAt,value
2023-09-23T00:03:55.353Z,12.20
2023-09-23T00:08:57.571Z,12.10
2023-09-23T00:13:59.246Z,12.20
2023-09-23T00:19:00.923Z,12.00
2023-09-23T00:24:03.128Z,12.20
2023-09-23T00:29:05.639Z,12.10
2023-09-23T00:34:07.279Z,12.00
2023-09-23T00:39:10.936Z,12.00
2023-09-23T00:44:12.796Z,12.10
2023-09-23T00:49:14.677Z,12.10
2023-09-23T00:54:22.821Z,12.10
2023-09-23T00:59:24.637Z,11.90
2023-09-23T01:04:26.353Z,11.80
2023-09-23T01:09:31.044Z,11.80
2023-09-23T01:14:32.941Z,11.70
2023-09-23T01:19:35.703Z,11.60
2023-09-23T01:24:37.306Z,11.60
2023-09-23T01:29:38.958Z,11.50
2023-09-23T01:34:40.720Z,11.50
2023-09-23T01:39:42.528Z,11.30
2023-09-23T01:44:45.204Z,11.60
2023-09-23T01:49:46.939Z,11.50
2023-09-23T01:54:49.347Z,11.40
2023-09-23T01:59:50.966Z,11.40
2023-09-23T02:04:52.676Z,11.50
2023-09-23T02:09:54.321Z,11.30
2023-09-23T02:14:56.705Z,11.30
2023-09-23T02:19:58.364Z,11.10
2023-09-23T02:25:00.057Z,11.10
2023-09-23T02:30:03.375Z,11.30
2023-09-23T02:35:05.615Z,11.30
2023-09-23T02:40:19.193Z,11.40
2023-09-23T02:45:24.947Z,11.40
2023-09-23T02:50:27.183Z,11.30
2023-09-23T02:55:28.831Z,11.30
2023-09-23T03:00:35.472Z,11.30
2023-09-23T03:05:40.374Z,11.20
2023-09-23T03:10:43.096Z,11.20
2023-09-23T03:15:53.852Z,11.30
2023-09-23T03:20:58.925Z,11.30
2023-09-23T03:26:01.501Z,11.20
2023-09-23T03:31:03.852Z,11.10
2023-09-23T03:36:06.824Z,11.10
2023-09-23T03:41:09.367Z,11.10
2023-09-23T03:46:12.381Z,11.10
2023-09-23T03:51:15.754Z,11.00
2023-09-23T03:56:17.534Z,11.00
2023-09-23T04:01:21.135Z,10.80
2023-09-23T04:06:23.793Z,10.70
2023-09-23T04:11:25.992Z,10.80
2023-09-23T04:16:27.894Z,10.90
2023-09-23T04:21:32.264Z,10.70
2023-09-23T04:26:33.941Z,10.60
2023-09-23T04:31:35.545Z,10.60
2023-09-23T04:36:37.245Z,10.50
2023-09-23T04:41:41.373Z,10.60
2023-09-23T04:46:46.155Z,10.60
2023-09-23T04:51:48.170Z,10.40
2023-09-23T04:56:49.840Z,10.60
2023-09-23T05:01:52.498Z,10.60
2023-09-23T05:06:54.562Z,10.60
2023-09-23T05:11:56.552Z,10.50
2023-09-23T05:16:59.520Z,10.50
2023-09-23T05:22:01.601Z,10.60
2023-09-23T05:27:04.680Z,10.60
2023-09-23T05:32:06.270Z,10.50
2023-09-23T05:37:07.906Z,10.50
2023-09-23T05:42:09.497Z,10.60
2023-09-23T05:47:11.635Z,10.60
2023-09-23T05:52:15.721Z,10.70
2023-09-23T05:57:17.353Z,10.80
2023-09-23T06:02:19.430Z,10.80
2023-09-23T06:07:21.346Z,10.90
2023-09-23T06:12:22.980Z,11.00
2023-09-23T06:17:25.401Z,11.10
2023-09-23T06:22:28.454Z,11.10
2023-09-23T06:27:30.123Z,11.20
2023-09-23T06:32:32.820Z,11.40
2023-09-23T06:37:34.661Z,11.50
2023-09-23T06:42:37.057Z,11.60
2023-09-23T06:47:38.940Z,11.80
2023-09-23T06:52:40.638Z,12.00
2023-09-23T06:57:42.227Z,12.10
2023-09-23T07:02:43.927Z,12.20
2023-09-23T07:07:45.632Z,12.50
2023-09-23T07:12:47.497Z,12.50
2023-09-23T07:17:49.223Z,12.60
2023-09-23T07:22:50.897Z,12.80
2023-09-23T07:27:52.499Z,12.90
2023-09-23T07:32:54.204Z,13.10
2023-09-23T07:37:55.917Z,13.30
2023-09-23T07:42:57.731Z,13.60
2023-09-23T07:47:59.569Z,13.80
2023-09-23T07:53:01.298Z,14.00
2023-09-23T07:58:03.031Z,14.20
2023-09-23T08:03:04.875Z,14.40
2023-09-23T08:08:07.384Z,14.80
2023-09-23T08:13:09.162Z,15.10
2023-09-23T08:18:10.871Z,15.00
2023-09-23T08:23:12.978Z,15.20
2023-09-23T08:28:14.679Z,15.10
2023-09-23T08:33:16.436Z,15.30
2023-09-23T08:38:18.385Z,15.60
2023-09-23T08:43:24.457Z,15.50
2023-09-23T08:48:26.317Z,15.60
2023-09-23T08:53:28.621Z,15.90
2023-09-23T08:58:31.455Z,15.90
2023-09-23T09:03:33.335Z,15.90
2023-09-23T09:08:35.093Z,15.60
2023-09-23T09:13:37.648Z,15.80
2023-09-23T09:18:39.614Z,15.50
2023-09-23T09:23:41.217Z,15.30
2023-09-23T09:28:43.422Z,15.40
2023-09-23T09:33:51.572Z,15.80
2023-09-23T09:38:55.532Z,15.90
2023-09-23T09:44:01.191Z,16.40
2023-09-23T09:49:03.119Z,16.50
2023-09-23T09:54:05.456Z,16.70
2023-09-23T09:59:07.067Z,16.30
2023-09-23T10:04:11.859Z,16.10
2023-09-23T10:09:14.796Z,16.20
2023-09-23T10:14:19.412Z,16.20
2023-09-23T10:19:50.255Z,16.30
2023-09-23T10:25:00.030Z,16.30
2023-09-23T10:30:01.860Z,16.70
2023-09-23T10:35:03.582Z,16.60
2023-09-23T10:40:18.469Z,16.40
2023-09-23T10:45:21.850Z,16.60
2023-09-23T10:50:23.699Z,16.70
2023-09-23T10:55:25.577Z,16.60
2023-09-23T11:00:29.179Z,16.50
2023-09-23T11:05:32.900Z,16.40
2023-09-23T11:10:35.555Z,16.30
2023-09-23T11:39:32.580Z,16.70
2023-09-23T11:44:35.761Z,16.80
2023-09-23T11:49:37.756Z,16.90
2023-09-23T11:54:43.365Z,16.70
2023-09-23T11:59:45.278Z,16.70
2023-09-23T12:04:50.230Z,16.90
2023-09-23T12:09:54.201Z,17.50
2023-09-23T12:14:55.995Z,17.10
2023-09-23T12:19:57.735Z,16.70
2023-09-23T12:24:59.413Z,16.70
2023-09-23T12:30:01.815Z,16.80
2023-09-23T12:35:03.770Z,16.60
2023-09-23T12:40:06.560Z,16.80
2023-09-23T12:45:12.860Z,16.80
2023-09-23T12:50:14.988Z,16.80
2023-09-23T12:55:16.687Z,16.80
2023-09-23T13:00:18.409Z,16.80
2023-09-23T13:05:20.647Z,17.00
2023-09-23T13:10:22.476Z,17.40
2023-09-23T13:15:24.101Z,17.60
2023-09-23T13:20:25.937Z,17.80
2023-09-23T13:25:29.719Z,18.00
2023-09-23T13:30:31.328Z,18.20
2023-09-23T13:35:33.063Z,17.60
2023-09-23T13:40:35.484Z,17.80
2023-09-23T13:45:38.963Z,17.90
2023-09-23T13:50:42.421Z,18.00
2023-09-23T13:55:44.153Z,17.70
2023-09-23T14:00:47.564Z,18.30
2023-09-23T14:05:49.230Z,18.20
2023-09-23T14:10:50.938Z,18.10
2023-09-23T14:15:52.617Z,18.30
2023-09-23T14:20:54.362Z,18.10
2023-09-23T14:25:56.116Z,18.30
2023-09-23T14:30:58.920Z,18.40
2023-09-23T14:36:02.575Z,18.40
2023-09-23T14:41:04.331Z,18.00
2023-09-23T14:46:07.103Z,18.00
2023-09-23T14:51:08.868Z,18.10
2023-09-23T14:56:10.996Z,18.30
2023-09-23T15:01:13.913Z,18.30
2023-09-23T15:06:15.848Z,18.30
2023-09-23T15:11:18.352Z,18.00
2023-09-23T15:16:20.108Z,18.00
2023-09-23T15:21:22.520Z,18.00
2023-09-23T15:26:25.122Z,18.10
2023-09-23T15:31:26.958Z,18.00
2023-09-23T15:36:28.636Z,17.90
2023-09-23T15:41:30.385Z,17.90
2023-09-23T15:46:32.916Z,17.90
2023-09-23T15:51:34.655Z,17.80
2023-09-23T15:56:40.883Z,17.60
2023-09-23T16:01:42.732Z,17.60
2023-09-23T16:06:44.441Z,17.50
2023-09-23T16:11:47.268Z,17.40
2023-09-23T16:16:49.309Z,17.40
2023-09-23T16:21:52.625Z,17.20
2023-09-23T16:26:54.425Z,17.20
2023-09-23T16:31:57.116Z,17.10
2023-09-23T16:36:59.812Z,17.10
2023-09-23T16:42:01.604Z,17.00
2023-09-23T16:47:04.393Z,16.90
2023-09-23T16:52:06.000Z,16.90
2023-09-23T16:57:08.703Z,16.70
2023-09-23T17:02:11.659Z,16.80
2023-09-23T17:07:14.492Z,16.70
2023-09-23T17:12:17.339Z,16.70
2023-09-23T17:17:19.085Z,16.70
2023-09-23T17:22:20.651Z,16.60
2023-09-23T17:27:22.304Z,16.50
2023-09-23T17:32:24.171Z,16.50
2023-09-23T17:37:25.827Z,16.40
2023-09-23T17:42:27.692Z,16.30
2023-09-23T17:47:29.431Z,16.30
2023-09-23T17:52:31.243Z,16.20
2023-09-23T17:57:33.042Z,16.10
2023-09-23T18:02:34.866Z,16.00
2023-09-23T18:07:36.519Z,15.70
2023-09-23T18:12:38.586Z,15.70
2023-09-23T18:17:40.970Z,15.60
2023-09-23T18:22:44.083Z,15.60
2023-09-23T18:27:45.750Z,15.50
2023-09-23T18:32:47.740Z,15.50
2023-09-23T18:37:49.678Z,15.50
2023-09-23T18:42:51.419Z,15.40
2023-09-23T18:48:04.169Z,15.30
2023-09-23T18:53:14.752Z,15.40
2023-09-23T18:58:16.498Z,15.30
2023-09-23T19:03:18.500Z,15.20
2023-09-23T19:08:20.429Z,15.00
2023-09-23T19:13:22.055Z,15.00
2023-09-23T19:18:23.696Z,15.10
2023-09-23T19:23:25.730Z,15.10
2023-09-23T19:28:27.636Z,15.10
2023-09-23T19:33:29.696Z,15.20
2023-09-23T19:38:32.213Z,15.00
2023-09-23T19:43:36.408Z,15.00
2023-09-23T19:48:40.202Z,15.00
2023-09-23T19:53:41.861Z,14.90
2023-09-23T19:58:45.582Z,14.70
2023-09-23T20:03:47.513Z,14.80
2023-09-23T20:08:49.412Z,14.70
2023-09-23T20:13:52.550Z,14.70
2023-09-23T20:18:54.224Z,14.70
2023-09-23T20:23:55.970Z,14.60
2023-09-23T20:28:57.713Z,14.70
2023-09-23T20:33:59.558Z,14.70
2023-09-23T20:39:01.276Z,14.70
2023-09-23T20:44:04.802Z,14.70
2023-09-23T20:49:07.141Z,14.70
2023-09-23T20:54:09.110Z,14.70
2023-09-23T20:59:11.119Z,14.70
2023-09-23T21:04:14.567Z,14.60
2023-09-23T21:09:16.922Z,14.60
2023-09-23T21:14:18.638Z,14.50
2023-09-23T21:19:21.617Z,14.50
2023-09-23T21:24:23.288Z,14.50
2023-09-23T21:29:26.931Z,14.50
2023-09-23T21:34:34.531Z,14.40
2023-09-23T21:39:36.257Z,14.40
2023-09-23T21:44:38.113Z,14.30
2023-09-23T21:49:39.880Z,14.30
2023-09-23T21:54:41.644Z,14.30
2023-09-23T21:59:44.191Z,14.10
2023-09-23T22:04:47.131Z,14.10
2023-09-23T22:09:49.251Z,14.00
2023-09-23T22:14:50.947Z,13.90
2023-09-23T22:19:52.745Z,13.80
2023-09-23T22:24:57.705Z,13.60
2023-09-23T22:30:05.669Z,13.50
2023-09-23T22:35:07.944Z,13.30
2023-09-23T22:40:14.930Z,13.20
2023-09-23T22:45:24.197Z,13.10
2023-09-23T22:50:33.983Z,13.00
2023-09-23T22:55:37.132Z,12.80
2023-09-23T23:00:40.178Z,12.60
2023-09-23T23:05:41.948Z,12.50
2023-09-23T23:10:43.712Z,12.70
2023-09-23T23:15:45.363Z,12.60
2023-09-23T23:20:48.729Z,12.60
2023-09-23T23:25:51.064Z,12.50
2023-09-23T23:30:53.095Z,12.40
2023-09-23T23:35:59.812Z,12.40
2023-09-23T23:41:02.754Z,12.40
2023-09-23T23:46:09.973Z,12.30
2023-09-23T23:51:14.049Z,12.10
2023-09-23T23:56:17.781Z,12.20
